X  Kiinni Metar Aviation säätiedot     YMML Melbourne International Airport
Lämpötila
12°C Lämpötila
8°C Kastepiste
77% Kosteus



Tuuli
21 KM/T
13 MPH
6 M/S
11 KTS



350°
P
Nykyiset olosuhteet

Kirkas Kirkas
Paine 1019.98 (hPa) - 30.12 (inHg)
Näkyvyys 6 (maili) - 9.7 (km)
Lentokenttä
Lentokentän koodi YMML

Sijainti: Melbourne International Airport
Etäisyys: 18 (km)

Metar:
YMML 211930Z 35011KT CAVOK 12/08 Q1020

Aika: 22-07-2024 05:30 AEST